Davison Army Air Field Fort Belvoir US
ICAO: KDAA
IATA: DAA
Category: Medium
Scheduled Services: No

Elevation: 73 ft
TransAlt. 18000 ft.

Airport Communications:
POTOMAC APP:119.85
ATIS:128.175
CLNC DEL:24.52
CTAF:126.3
POTOMAC DEP:118.1
GND:121.9
ARNG OPS:52.75
BASE OPS:139.4
PMSV METRO:139.4
PTD:139.4
TWR:126.3

KDAA Zoom In..

Runways:

(A) RW 14 length 5619 ft width 75 ft
---- / hdg 142

(B) RW 32 length 5619 ft width 75 ft
ILS 108.90 / hdg 322

Location; KDAA
Day. 29 / Time. 09.01 Zulu
* Altimeter: 30.02
* Temperature: 23° c. 73.4°f.
* Wind from: 150° Speed 06 kn.
Dewpoint: 22° c.
Visibility: 10 Statute Miles.
Clouds: Broken 1800 ft.
Clouds: Broken 5000 ft.

KDAA 290901Z AUTO 15006KT 10SM BKN018 BKN050 23/22 A3002 RMK AO2 CIG 018V050 SLP168 TSNO $


Wind From 150°
Speed 06 kn.

 
 
jpsmedia worldairports.se 2020   terms of use